sensor_id;sensor_type;location;lat;lon;timestamp;pressure;altitude;pressure_sealevel;temperature;humidity
24762;BME280;12865;51.934;10.330;2023-05-10T00:01:58;98340.53;;;11.86;85.56
24762;BME280;12865;51.934;10.330;2023-05-10T00:04:43;98331.22;;;11.82;85.94
24762;BME280;12865;51.934;10.330;2023-05-10T00:07:29;98330.53;;;11.79;85.78
24762;BME280;12865;51.934;10.330;2023-05-10T00:10:15;98325.19;;;11.71;88.26
24762;BME280;12865;51.934;10.330;2023-05-10T00:13:01;98323.06;;;11.75;87.90
24762;BME280;12865;51.934;10.330;2023-05-10T00:15:46;98322.06;;;11.76;88.06
24762;BME280;12865;51.934;10.330;2023-05-10T00:18:32;98322.53;;;11.79;87.14
24762;BME280;12865;51.934;10.330;2023-05-10T00:21:17;98317.72;;;11.83;88.39
24762;BME280;12865;51.934;10.330;2023-05-10T00:24:03;98315.81;;;11.92;86.79
24762;BME280;12865;51.934;10.330;2023-05-10T00:26:50;98319.53;;;11.91;86.73
24762;BME280;12865;51.934;10.330;2023-05-10T00:29:35;98318.47;;;12.00;85.96
24762;BME280;12865;51.934;10.330;2023-05-10T00:32:21;98317.00;;;12.05;85.95
24762;BME280;12865;51.934;10.330;2023-05-10T00:35:07;98315.19;;;11.90;87.74
24762;BME280;12865;51.934;10.330;2023-05-10T00:37:53;98305.84;;;11.86;87.60
24762;BME280;12865;51.934;10.330;2023-05-10T00:40:38;98300.19;;;11.80;88.32
24762;BME280;12865;51.934;10.330;2023-05-10T00:43:24;98306.69;;;11.78;88.84
24762;BME280;12865;51.934;10.330;2023-05-10T00:46:10;98300.34;;;11.79;89.62
24762;BME280;12865;51.934;10.330;2023-05-10T00:48:56;98306.50;;;11.79;88.98
24762;BME280;12865;51.934;10.330;2023-05-10T00:51:42;98298.81;;;11.85;89.22
24762;BME280;12865;51.934;10.330;2023-05-10T00:54:28;98307.84;;;11.84;89.18
24762;BME280;12865;51.934;10.330;2023-05-10T00:57:14;98306.34;;;11.81;89.60
24762;BME280;12865;51.934;10.330;2023-05-10T01:00:01;98302.53;;;11.84;89.24
24762;BME280;12865;51.934;10.330;2023-05-10T01:02:47;98303.00;;;11.87;89.28
24762;BME280;12865;51.934;10.330;2023-05-10T01:05:33;98306.66;;;11.94;88.70
24762;BME280;12865;51.934;10.330;2023-05-10T01:08:19;98304.66;;;11.88;88.97
24762;BME280;12865;51.934;10.330;2023-05-10T01:11:05;98301.69;;;11.83;89.64
24762;BME280;12865;51.934;10.330;2023-05-10T01:13:55;98300.84;;;11.74;90.37
24762;BME280;12865;51.934;10.330;2023-05-10T01:16:42;98296.00;;;11.70;91.25
24762;BME280;12865;51.934;10.330;2023-05-10T01:19:30;98300.16;;;11.72;91.46
24762;BME280;12865;51.934;10.330;2023-05-10T01:26:03;98294.19;;;11.62;93.19
24762;BME280;12865;51.934;10.330;2023-05-10T01:29:14;98291.50;;;11.54;94.43
24762;BME280;12865;51.934;10.330;2023-05-10T01:32:16;98298.16;;;11.58;93.91
24762;BME280;12865;51.934;10.330;2023-05-10T01:35:10;98297.34;;;11.58;93.81
24762;BME280;12865;51.934;10.330;2023-05-10T01:38:33;98282.66;;;11.54;95.26
24762;BME280;12865;51.934;10.330;2023-05-10T01:41:50;98284.19;;;11.56;93.32
24762;BME280;12865;51.934;10.330;2023-05-10T01:48:06;98284.44;;;11.94;88.90
24762;BME280;12865;51.934;10.330;2023-05-10T01:50:54;98278.56;;;12.06;89.03
24762;BME280;12865;51.934;10.330;2023-05-10T01:53:42;98278.41;;;12.47;81.23
24762;BME280;12865;51.934;10.330;2023-05-10T01:56:32;98280.16;;;12.63;83.47
24762;BME280;12865;51.934;10.330;2023-05-10T01:59:19;98269.66;;;12.61;85.18
24762;BME280;12865;51.934;10.330;2023-05-10T02:02:06;98280.34;;;12.61;84.60
24762;BME280;12865;51.934;10.330;2023-05-10T02:04:54;98270.88;;;12.50;85.51
24762;BME280;12865;51.934;10.330;2023-05-10T02:07:41;98274.56;;;12.41;86.53
24762;BME280;12865;51.934;10.330;2023-05-10T02:10:28;98280.59;;;12.43;86.38
24762;BME280;12865;51.934;10.330;2023-05-10T02:13:16;98283.47;;;12.34;86.33
24762;BME280;12865;51.934;10.330;2023-05-10T02:16:03;98278.22;;;12.17;88.77
24762;BME280;12865;51.934;10.330;2023-05-10T02:18:51;98278.38;;;12.16;88.27
24762;BME280;12865;51.934;10.330;2023-05-10T02:21:39;98281.03;;;12.16;88.80
24762;BME280;12865;51.934;10.330;2023-05-10T02:24:26;98281.50;;;12.19;89.22
24762;BME280;12865;51.934;10.330;2023-05-10T02:27:14;98273.50;;;12.19;89.03
24762;BME280;12865;51.934;10.330;2023-05-10T02:30:01;98283.31;;;12.27;88.10
24762;BME280;12865;51.934;10.330;2023-05-10T02:32:49;98280.78;;;12.34;87.52
24762;BME280;12865;51.934;10.330;2023-05-10T02:35:35;98272.56;;;12.43;87.47
24762;BME280;12865;51.934;10.330;2023-05-10T02:38:23;98275.41;;;12.42;88.50
24762;BME280;12865;51.934;10.330;2023-05-10T02:41:09;98267.78;;;12.62;87.09
24762;BME280;12865;51.934;10.330;2023-05-10T02:43:59;98264.16;;;12.54;86.42
24762;BME280;12865;51.934;10.330;2023-05-10T02:46:46;98273.19;;;12.53;86.31
24762;BME280;12865;51.934;10.330;2023-05-10T02:49:32;98268.84;;;12.52;87.71
24762;BME280;12865;51.934;10.330;2023-05-10T02:52:21;98265.34;;;12.52;88.11
24762;BME280;12865;51.934;10.330;2023-05-10T02:55:09;98268.84;;;12.52;88.90
24762;BME280;12865;51.934;10.330;2023-05-10T02:58:00;98263.84;;;12.49;90.08
24762;BME280;12865;51.934;10.330;2023-05-10T03:00:46;98264.84;;;12.48;90.59
24762;BME280;12865;51.934;10.330;2023-05-10T03:03:32;98270.56;;;12.45;91.58
24762;BME280;12865;51.934;10.330;2023-05-10T03:06:18;98267.03;;;12.53;90.38
24762;BME280;12865;51.934;10.330;2023-05-10T03:09:03;98266.66;;;12.56;90.59
24762;BME280;12865;51.934;10.330;2023-05-10T03:12:01;98270.16;;;12.56;91.21
24762;BME280;12865;51.934;10.330;2023-05-10T03:15:17;98268.50;;;12.55;92.67
24762;BME280;12865;51.934;10.330;2023-05-10T03:18:07;98264.34;;;12.53;92.35
24762;BME280;12865;51.934;10.330;2023-05-10T03:21:02;98266.19;;;12.52;91.81
24762;BME280;12865;51.934;10.330;2023-05-10T03:26:43;98277.84;;;12.59;88.78
24762;BME280;12865;51.934;10.330;2023-05-10T03:29:31;98276.63;;;12.62;89.37
24762;BME280;12865;51.934;10.330;2023-05-10T03:32:17;98278.88;;;12.50;90.96
24762;BME280;12865;51.934;10.330;2023-05-10T03:35:10;98277.38;;;12.48;90.51
24762;BME280;12865;51.934;10.330;2023-05-10T03:37:57;98275.25;;;12.43;90.23
24762;BME280;12865;51.934;10.330;2023-05-10T03:40:43;98273.56;;;12.42;90.14
24762;BME280;12865;51.934;10.330;2023-05-10T03:43:28;98279.88;;;12.49;89.28
24762;BME280;12865;51.934;10.330;2023-05-10T03:46:14;98277.50;;;12.54;88.42
24762;BME280;12865;51.934;10.330;2023-05-10T03:49:00;98287.06;;;12.49;89.00
24762;BME280;12865;51.934;10.330;2023-05-10T03:51:45;98281.56;;;12.50;90.33
24762;BME280;12865;51.934;10.330;2023-05-10T03:54:31;98282.34;;;12.59;88.43
24762;BME280;12865;51.934;10.330;2023-05-10T03:57:17;98283.22;;;12.51;89.12
24762;BME280;12865;51.934;10.330;2023-05-10T04:00:04;98276.06;;;12.44;90.23
24762;BME280;12865;51.934;10.330;2023-05-10T04:02:49;98274.06;;;12.46;92.36
24762;BME280;12865;51.934;10.330;2023-05-10T04:05:35;98268.91;;;12.44;92.53
24762;BME280;12865;51.934;10.330;2023-05-10T04:08:21;98280.25;;;12.46;92.86
24762;BME280;12865;51.934;10.330;2023-05-10T04:11:08;98277.25;;;12.41;94.73
24762;BME280;12865;51.934;10.330;2023-05-10T04:13:54;98274.25;;;12.44;93.48
24762;BME280;12865;51.934;10.330;2023-05-10T04:16:39;98262.84;;;12.50;93.63
24762;BME280;12865;51.934;10.330;2023-05-10T04:19:32;98268.31;;;12.57;91.80
24762;BME280;12865;51.934;10.330;2023-05-10T04:22:17;98263.13;;;12.55;92.05
24762;BME280;12865;51.934;10.330;2023-05-10T04:25:03;98266.78;;;12.63;92.45
24762;BME280;12865;51.934;10.330;2023-05-10T04:27:50;98270.13;;;12.65;96.42
24762;BME280;12865;51.934;10.330;2023-05-10T04:30:35;98268.94;;;12.67;95.11
24762;BME280;12865;51.934;10.330;2023-05-10T04:33:21;98278.44;;;12.70;96.60
24762;BME280;12865;51.934;10.330;2023-05-10T04:36:07;98276.25;;;12.73;96.75
24762;BME280;12865;51.934;10.330;2023-05-10T04:38:53;98281.34;;;12.83;96.53
24762;BME280;12865;51.934;10.330;2023-05-10T04:41:38;98281.69;;;12.88;95.93
24762;BME280;12865;51.934;10.330;2023-05-10T04:44:24;98280.13;;;12.93;96.73
24762;BME280;12865;51.934;10.330;2023-05-10T04:47:09;98280.91;;;13.02;96.34
24762;BME280;12865;51.934;10.330;2023-05-10T04:49:55;98277.84;;;13.13;99.35
24762;BME280;12865;51.934;10.330;2023-05-10T04:52:41;98280.81;;;13.18;98.80
24762;BME280;12865;51.934;10.330;2023-05-10T04:55:26;98286.28;;;13.25;98.40
24762;BME280;12865;51.934;10.330;2023-05-10T04:58:12;98298.13;;;13.30;98.54
24762;BME280;12865;51.934;10.330;2023-05-10T05:01:05;98294.91;;;13.35;99.05
24762;BME280;12865;51.934;10.330;2023-05-10T05:03:51;98296.41;;;13.38;99.53
24762;BME280;12865;51.934;10.330;2023-05-10T05:06:38;98300.75;;;13.39;99.94
24762;BME280;12865;51.934;10.330;2023-05-10T05:09:23;98304.88;;;13.41;100.00
24762;BME280;12865;51.934;10.330;2023-05-10T05:12:09;98307.00;;;13.46;100.00
24762;BME280;12865;51.934;10.330;2023-05-10T05:14:59;98312.31;;;13.54;100.00
24762;BME280;12865;51.934;10.330;2023-05-10T05:17:45;98305.41;;;13.74;100.00
24762;BME280;12865;51.934;10.330;2023-05-10T05:20:32;98309.72;;;14.12;100.00
24762;BME280;12865;51.934;10.330;2023-05-10T05:23:18;98310.75;;;14.26;100.00
24762;BME280;12865;51.934;10.330;2023-05-10T05:26:06;98313.53;;;14.47;100.00
24762;BME280;12865;51.934;10.330;2023-05-10T05:28:51;98311.59;;;14.56;100.00
24762;BME280;12865;51.934;10.330;2023-05-10T05:31:39;98318.88;;;14.62;100.00
24762;BME280;12865;51.934;10.330;2023-05-10T05:34:25;98315.19;;;14.63;100.00
24762;BME280;12865;51.934;10.330;2023-05-10T05:37:19;98319.16;;;14.67;100.00
24762;BME280;12865;51.934;10.330;2023-05-10T05:40:05;98313.78;;;14.67;100.00
24762;BME280;12865;51.934;10.330;2023-05-10T05:42:51;98316.94;;;14.71;100.00
24762;BME280;12865;51.934;10.330;2023-05-10T05:45:37;98322.09;;;14.72;100.00
24762;BME280;12865;51.934;10.330;2023-05-10T05:48:23;98325.59;;;14.73;100.00
24762;BME280;12865;51.934;10.330;2023-05-10T05:51:09;98340.59;;;14.67;100.00
24762;BME280;12865;51.934;10.330;2023-05-10T05:53:55;98345.97;;;14.67;100.00
24762;BME280;12865;51.934;10.330;2023-05-10T05:56:40;98341.34;;;14.61;100.00
24762;BME280;12865;51.934;10.330;2023-05-10T05:59:26;98348.31;;;14.56;100.00
24762;BME280;12865;51.934;10.330;2023-05-10T06:02:12;98349.88;;;14.50;100.00
24762;BME280;12865;51.934;10.330;2023-05-10T06:04:57;98353.75;;;14.47;100.00
24762;BME280;12865;51.934;10.330;2023-05-10T06:07:43;98364.66;;;14.46;100.00
24762;BME280;12865;51.934;10.330;2023-05-10T06:10:29;98376.31;;;14.38;100.00
24762;BME280;12865;51.934;10.330;2023-05-10T06:13:16;98368.53;;;14.29;100.00
24762;BME280;12865;51.934;10.330;2023-05-10T06:16:02;98371.81;;;14.16;100.00
24762;BME280;12865;51.934;10.330;2023-05-10T06:18:48;98373.69;;;14.01;100.00
24762;BME280;12865;51.934;10.330;2023-05-10T06:21:33;98378.28;;;13.92;100.00
24762;BME280;12865;51.934;10.330;2023-05-10T06:24:19;98386.38;;;13.84;100.00
24762;BME280;12865;51.934;10.330;2023-05-10T06:27:05;98379.41;;;13.75;100.00
24762;BME280;12865;51.934;10.330;2023-05-10T06:29:51;98385.50;;;13.69;100.00
24762;BME280;12865;51.934;10.330;2023-05-10T06:32:37;98389.19;;;13.68;100.00
24762;BME280;12865;51.934;10.330;2023-05-10T06:35:23;98383.66;;;13.69;100.00
24762;BME280;12865;51.934;10.330;2023-05-10T06:38:08;98392.88;;;13.67;100.00
24762;BME280;12865;51.934;10.330;2023-05-10T06:40:55;98400.91;;;13.67;100.00
24762;BME280;12865;51.934;10.330;2023-05-10T06:43:41;98388.06;;;13.62;100.00
24762;BME280;12865;51.934;10.330;2023-05-10T06:46:26;98391.88;;;13.68;100.00
24762;BME280;12865;51.934;10.330;2023-05-10T06:49:12;98397.47;;;13.58;100.00
24762;BME280;12865;51.934;10.330;2023-05-10T06:51:58;98394.66;;;13.74;100.00
24762;BME280;12865;51.934;10.330;2023-05-10T06:54:44;98391.22;;;13.66;100.00
24762;BME280;12865;51.934;10.330;2023-05-10T06:57:32;98396.03;;;13.70;100.00
24762;BME280;12865;51.934;10.330;2023-05-10T07:00:18;98396.63;;;13.81;100.00
24762;BME280;12865;51.934;10.330;2023-05-10T07:03:05;98395.44;;;13.83;100.00
24762;BME280;12865;51.934;10.330;2023-05-10T07:05:50;98410.84;;;13.81;100.00
24762;BME280;12865;51.934;10.330;2023-05-10T07:08:36;98407.69;;;13.77;100.00
24762;BME280;12865;51.934;10.330;2023-05-10T07:11:22;98418.72;;;13.83;100.00
24762;BME280;12865;51.934;10.330;2023-05-10T07:14:07;98418.53;;;13.84;100.00
24762;BME280;12865;51.934;10.330;2023-05-10T07:16:53;98421.75;;;13.80;100.00
24762;BME280;12865;51.934;10.330;2023-05-10T07:19:39;98422.72;;;13.87;100.00
24762;BME280;12865;51.934;10.330;2023-05-10T07:22:24;98424.00;;;13.91;100.00
24762;BME280;12865;51.934;10.330;2023-05-10T07:25:10;98425.00;;;13.90;100.00
24762;BME280;12865;51.934;10.330;2023-05-10T07:27:56;98427.53;;;13.91;100.00
24762;BME280;12865;51.934;10.330;2023-05-10T07:30:42;98439.53;;;13.95;100.00
24762;BME280;12865;51.934;10.330;2023-05-10T07:33:28;98431.44;;;14.03;100.00
24762;BME280;12865;51.934;10.330;2023-05-10T07:36:14;98429.34;;;14.13;100.00
24762;BME280;12865;51.934;10.330;2023-05-10T07:39:00;98439.88;;;14.15;100.00
24762;BME280;12865;51.934;10.330;2023-05-10T07:41:46;98442.66;;;14.22;100.00
24762;BME280;12865;51.934;10.330;2023-05-10T07:44:32;98437.69;;;14.33;100.00
24762;BME280;12865;51.934;10.330;2023-05-10T07:47:17;98434.66;;;14.36;100.00
24762;BME280;12865;51.934;10.330;2023-05-10T07:50:03;98437.16;;;14.38;100.00
24762;BME280;12865;51.934;10.330;2023-05-10T07:52:49;98437.63;;;14.41;100.00
24762;BME280;12865;51.934;10.330;2023-05-10T07:55:35;98445.97;;;14.46;100.00
24762;BME280;12865;51.934;10.330;2023-05-10T07:58:21;98446.78;;;14.47;100.00
24762;BME280;12865;51.934;10.330;2023-05-10T08:01:06;98455.19;;;14.44;100.00
24762;BME280;12865;51.934;10.330;2023-05-10T08:03:52;98456.69;;;14.46;100.00
24762;BME280;12865;51.934;10.330;2023-05-10T08:06:39;98462.44;;;14.43;100.00
24762;BME280;12865;51.934;10.330;2023-05-10T08:09:25;98464.56;;;14.48;100.00
24762;BME280;12865;51.934;10.330;2023-05-10T08:12:11;98470.84;;;14.40;100.00
24762;BME280;12865;51.934;10.330;2023-05-10T08:14:57;98477.06;;;14.33;100.00
24762;BME280;12865;51.934;10.330;2023-05-10T08:17:42;98483.72;;;14.37;100.00
24762;BME280;12865;51.934;10.330;2023-05-10T08:20:28;98491.44;;;14.40;100.00
24762;BME280;12865;51.934;10.330;2023-05-10T08:23:14;98498.66;;;14.39;100.00
24762;BME280;12865;51.934;10.330;2023-05-10T08:26:03;98500.81;;;14.21;100.00
24762;BME280;12865;51.934;10.330;2023-05-10T08:28:48;98504.63;;;14.04;100.00
24762;BME280;12865;51.934;10.330;2023-05-10T08:31:34;98508.63;;;14.08;100.00
24762;BME280;12865;51.934;10.330;2023-05-10T08:34:20;98509.25;;;14.10;100.00
24762;BME280;12865;51.934;10.330;2023-05-10T08:37:06;98511.47;;;14.06;100.00
24762;BME280;12865;51.934;10.330;2023-05-10T08:39:52;98509.38;;;14.16;100.00
24762;BME280;12865;51.934;10.330;2023-05-10T08:42:53;98518.38;;;14.24;100.00
24762;BME280;12865;51.934;10.330;2023-05-10T08:45:44;98517.28;;;14.33;100.00
24762;BME280;12865;51.934;10.330;2023-05-10T08:48:34;98516.69;;;14.45;100.00
24762;BME280;12865;51.934;10.330;2023-05-10T08:51:23;98523.91;;;14.45;100.00
24762;BME280;12865;51.934;10.330;2023-05-10T08:54:12;98536.31;;;14.46;100.00
24762;BME280;12865;51.934;10.330;2023-05-10T08:56:58;98531.78;;;14.46;100.00
24762;BME280;12865;51.934;10.330;2023-05-10T08:59:44;98535.22;;;14.55;100.00
24762;BME280;12865;51.934;10.330;2023-05-10T09:02:29;98536.91;;;14.56;100.00
24762;BME280;12865;51.934;10.330;2023-05-10T09:05:15;98542.91;;;14.58;100.00
24762;BME280;12865;51.934;10.330;2023-05-10T09:08:03;98547.25;;;14.59;100.00
24762;BME280;12865;51.934;10.330;2023-05-10T09:10:48;98550.59;;;14.61;100.00
24762;BME280;12865;51.934;10.330;2023-05-10T09:13:36;98553.56;;;14.66;100.00
24762;BME280;12865;51.934;10.330;2023-05-10T09:16:23;98554.19;;;14.53;100.00
24762;BME280;12865;51.934;10.330;2023-05-10T09:19:09;98561.47;;;14.45;100.00
24762;BME280;12865;51.934;10.330;2023-05-10T09:21:55;98569.78;;;14.27;100.00
24762;BME280;12865;51.934;10.330;2023-05-10T09:24:42;98574.25;;;14.35;100.00
24762;BME280;12865;51.934;10.330;2023-05-10T09:29:58;98579.06;;;14.47;100.00
24762;BME280;12865;51.934;10.330;2023-05-10T09:32:45;98582.03;;;14.52;100.00
24762;BME280;12865;51.934;10.330;2023-05-10T09:35:32;98588.88;;;14.55;100.00
24762;BME280;12865;51.934;10.330;2023-05-10T09:38:18;98600.69;;;14.46;100.00
24762;BME280;12865;51.934;10.330;2023-05-10T09:41:04;98597.09;;;14.53;100.00
24762;BME280;12865;51.934;10.330;2023-05-10T09:43:50;98602.47;;;14.53;100.00
24762;BME280;12865;51.934;10.330;2023-05-10T09:46:40;98600.28;;;14.57;100.00
24762;BME280;12865;51.934;10.330;2023-05-10T09:49:26;98601.75;;;14.60;100.00
24762;BME280;12865;51.934;10.330;2023-05-10T09:52:12;98604.25;;;14.61;100.00
24762;BME280;12865;51.934;10.330;2023-05-10T09:54:57;98606.75;;;14.63;100.00
24762;BME280;12865;51.934;10.330;2023-05-10T09:57:43;98610.13;;;14.79;100.00
24762;BME280;12865;51.934;10.330;2023-05-10T10:00:34;98608.00;;;14.75;100.00
24762;BME280;12865;51.934;10.330;2023-05-10T10:03:21;98613.97;;;15.00;100.00
24762;BME280;12865;51.934;10.330;2023-05-10T10:06:07;98616.63;;;14.85;100.00
24762;BME280;12865;51.934;10.330;2023-05-10T10:08:53;98618.41;;;15.07;100.00
24762;BME280;12865;51.934;10.330;2023-05-10T10:11:39;98613.28;;;15.20;100.00
24762;BME280;12865;51.934;10.330;2023-05-10T10:14:26;98614.91;;;15.07;100.00
24762;BME280;12865;51.934;10.330;2023-05-10T10:17:12;98622.88;;;15.15;100.00
24762;BME280;12865;51.934;10.330;2023-05-10T10:19:58;98622.44;;;15.26;100.00
24762;BME280;12865;51.934;10.330;2023-05-10T10:22:45;98624.47;;;15.39;100.00
24762;BME280;12865;51.934;10.330;2023-05-10T10:25:31;98631.44;;;15.33;100.00
24762;BME280;12865;51.934;10.330;2023-05-10T10:28:29;98628.66;;;15.41;100.00
24762;BME280;12865;51.934;10.330;2023-05-10T10:31:36;98620.13;;;15.52;100.00
24762;BME280;12865;51.934;10.330;2023-05-10T10:34:29;98620.31;;;15.65;100.00
24762;BME280;12865;51.934;10.330;2023-05-10T10:37:15;98623.09;;;15.72;100.00
24762;BME280;12865;51.934;10.330;2023-05-10T10:40:00;98633.19;;;15.70;100.00
24762;BME280;12865;51.934;10.330;2023-05-10T10:42:46;98629.03;;;15.82;100.00
24762;BME280;12865;51.934;10.330;2023-05-10T10:45:32;98639.03;;;15.74;100.00
24762;BME280;12865;51.934;10.330;2023-05-10T10:48:22;98635.41;;;15.81;100.00
24762;BME280;12865;51.934;10.330;2023-05-10T10:51:08;98642.38;;;15.76;100.00
24762;BME280;12865;51.934;10.330;2023-05-10T10:53:54;98636.63;;;15.79;100.00
24762;BME280;12865;51.934;10.330;2023-05-10T10:56:40;98637.09;;;15.82;100.00
24762;BME280;12865;51.934;10.330;2023-05-10T10:59:28;98640.78;;;15.81;100.00
24762;BME280;12865;51.934;10.330;2023-05-10T11:05:34;98648.56;;;15.32;100.00
24762;BME280;12865;51.934;10.330;2023-05-10T11:08:35;98648.72;;;15.30;100.00
24762;BME280;12865;51.934;10.330;2023-05-10T11:11:28;98654.66;;;15.26;100.00
24762;BME280;12865;51.934;10.330;2023-05-10T11:14:14;98660.00;;;15.11;100.00
24762;BME280;12865;51.934;10.330;2023-05-10T11:17:00;98658.50;;;15.09;100.00
24762;BME280;12865;51.934;10.330;2023-05-10T11:20:13;98660.22;;;15.24;100.00
24762;BME280;12865;51.934;10.330;2023-05-10T11:23:11;98657.44;;;15.32;100.00
24762;BME280;12865;51.934;10.330;2023-05-10T11:26:01;98667.81;;;15.36;100.00
24762;BME280;12865;51.934;10.330;2023-05-10T11:28:48;98659.22;;;15.40;100.00
24762;BME280;12865;51.934;10.330;2023-05-10T11:31:34;98658.81;;;15.43;100.00
24762;BME280;12865;51.934;10.330;2023-05-10T11:34:31;98660.50;;;15.44;100.00
24762;BME280;12865;51.934;10.330;2023-05-10T11:37:18;98668.88;;;15.64;100.00
24762;BME280;12865;51.934;10.330;2023-05-10T11:40:04;98669.34;;;15.82;100.00
24762;BME280;12865;51.934;10.330;2023-05-10T11:42:50;98658.00;;;16.01;100.00
24762;BME280;12865;51.934;10.330;2023-05-10T11:45:36;98671.09;;;16.04;100.00
24762;BME280;12865;51.934;10.330;2023-05-10T11:48:22;98668.09;;;16.14;100.00
24762;BME280;12865;51.934;10.330;2023-05-10T11:51:10;98670.38;;;16.32;100.00
24762;BME280;12865;51.934;10.330;2023-05-10T11:53:56;98667.94;;;16.37;100.00
24762;BME280;12865;51.934;10.330;2023-05-10T11:56:42;98679.00;;;16.27;100.00
24762;BME280;12865;51.934;10.330;2023-05-10T11:59:28;98680.75;;;16.35;100.00
24762;BME280;12865;51.934;10.330;2023-05-10T12:02:23;98674.44;;;16.28;100.00
24762;BME280;12865;51.934;10.330;2023-05-10T12:05:09;98673.53;;;16.57;100.00
24762;BME280;12865;51.934;10.330;2023-05-10T12:08:10;98666.03;;;16.88;100.00
24762;BME280;12865;51.934;10.330;2023-05-10T12:11:07;98671.84;;;17.19;100.00
24762;BME280;12865;51.934;10.330;2023-05-10T12:13:54;98661.72;;;17.49;100.00
24762;BME280;12865;51.934;10.330;2023-05-10T12:16:40;98666.34;;;17.96;100.00
24762;BME280;12865;51.934;10.330;2023-05-10T12:19:25;98663.84;;;17.95;93.96
24762;BME280;12865;51.934;10.330;2023-05-10T12:22:11;98669.38;;;18.15;95.32
24762;BME280;12865;51.934;10.330;2023-05-10T12:24:58;98670.97;;;18.09;87.75
24762;BME280;12865;51.934;10.330;2023-05-10T12:27:51;98675.97;;;18.12;87.32
24762;BME280;12865;51.934;10.330;2023-05-10T12:30:38;98678.44;;;18.00;87.55
24762;BME280;12865;51.934;10.330;2023-05-10T12:33:24;98681.28;;;17.92;88.25
24762;BME280;12865;51.934;10.330;2023-05-10T12:36:11;98682.19;;;18.06;87.55
24762;BME280;12865;51.934;10.330;2023-05-10T12:39:02;98683.66;;;17.74;90.50
24762;BME280;12865;51.934;10.330;2023-05-10T12:41:48;98680.88;;;17.95;87.97
24762;BME280;12865;51.934;10.330;2023-05-10T12:44:34;98693.81;;;18.07;86.26
24762;BME280;12865;51.934;10.330;2023-05-10T12:47:19;98685.06;;;18.04;91.03
24762;BME280;12865;51.934;10.330;2023-05-10T12:50:06;98691.00;;;18.28;87.47
24762;BME280;12865;51.934;10.330;2023-05-10T12:52:52;98692.28;;;18.38;85.29
24762;BME280;12865;51.934;10.330;2023-05-10T12:55:37;98693.69;;;18.28;83.48
24762;BME280;12865;51.934;10.330;2023-05-10T12:58:23;98697.22;;;17.87;86.57
24762;BME280;12865;51.934;10.330;2023-05-10T13:01:08;98708.59;;;17.83;89.37
24762;BME280;12865;51.934;10.330;2023-05-10T13:03:54;98697.28;;;17.94;89.23
24762;BME280;12865;51.934;10.330;2023-05-10T13:06:40;98700.03;;;18.07;92.69
24762;BME280;12865;51.934;10.330;2023-05-10T13:09:26;98700.63;;;18.02;89.64
24762;BME280;12865;51.934;10.330;2023-05-10T13:12:12;98705.00;;;18.03;88.31
24762;BME280;12865;51.934;10.330;2023-05-10T13:14:58;98708.50;;;17.97;89.07
24762;BME280;12865;51.934;10.330;2023-05-10T13:17:43;98708.31;;;17.64;90.84
24762;BME280;12865;51.934;10.330;2023-05-10T13:20:30;98704.97;;;17.62;90.46
24762;BME280;12865;51.934;10.330;2023-05-10T13:23:16;98707.47;;;17.64;94.08
24762;BME280;12865;51.934;10.330;2023-05-10T13:26:01;98715.28;;;17.59;93.50
24762;BME280;12865;51.934;10.330;2023-05-10T13:28:47;98709.81;;;17.52;92.84
24762;BME280;12865;51.934;10.330;2023-05-10T13:31:34;98712.00;;;17.36;94.23
24762;BME280;12865;51.934;10.330;2023-05-10T13:34:20;98713.41;;;17.32;95.00
24762;BME280;12865;51.934;10.330;2023-05-10T13:37:05;98716.25;;;17.23;93.97
24762;BME280;12865;51.934;10.330;2023-05-10T13:39:51;98718.91;;;17.17;94.64
24762;BME280;12865;51.934;10.330;2023-05-10T13:42:37;98714.06;;;16.91;98.07
24762;BME280;12865;51.934;10.330;2023-05-10T13:45:22;98722.09;;;16.48;99.42
24762;BME280;12865;51.934;10.330;2023-05-10T13:48:08;98718.53;;;16.63;98.61
24762;BME280;12865;51.934;10.330;2023-05-10T13:50:54;98714.97;;;16.77;99.08
24762;BME280;12865;51.934;10.330;2023-05-10T13:53:40;98721.13;;;16.92;97.04
24762;BME280;12865;51.934;10.330;2023-05-10T13:56:25;98719.22;;;17.07;95.49
24762;BME280;12865;51.934;10.330;2023-05-10T13:59:11;98720.69;;;16.88;94.63
24762;BME280;12865;51.934;10.330;2023-05-10T14:01:58;98718.06;;;17.16;94.97
24762;BME280;12865;51.934;10.330;2023-05-10T14:04:44;98712.38;;;17.33;92.68
24762;BME280;12865;51.934;10.330;2023-05-10T14:07:29;98715.38;;;17.44;92.17
24762;BME280;12865;51.934;10.330;2023-05-10T14:10:16;98713.41;;;17.59;90.45
24762;BME280;12865;51.934;10.330;2023-05-10T14:13:02;98708.59;;;17.83;89.46
24762;BME280;12865;51.934;10.330;2023-05-10T14:15:48;98712.16;;;17.83;88.17
24762;BME280;12865;51.934;10.330;2023-05-10T14:18:34;98694.78;;;17.92;87.81
24762;BME280;12865;51.934;10.330;2023-05-10T14:21:20;98703.69;;;17.93;87.98
24762;BME280;12865;51.934;10.330;2023-05-10T14:24:05;98696.88;;;17.97;87.75
24762;BME280;12865;51.934;10.330;2023-05-10T14:26:52;98695.91;;;18.11;86.72
24762;BME280;12865;51.934;10.330;2023-05-10T14:29:41;98687.13;;;18.02;89.57
24762;BME280;12865;51.934;10.330;2023-05-10T14:32:27;98687.97;;;18.03;88.74
24762;BME280;12865;51.934;10.330;2023-05-10T14:35:13;98689.28;;;18.14;91.01
24762;BME280;12865;51.934;10.330;2023-05-10T14:37:58;98683.09;;;18.26;90.82
24762;BME280;12865;51.934;10.330;2023-05-10T14:40:44;98688.97;;;18.43;88.52
24762;BME280;12865;51.934;10.330;2023-05-10T14:43:30;98691.75;;;18.63;86.75
24762;BME280;12865;51.934;10.330;2023-05-10T14:46:16;98688.63;;;18.59;87.11